Time;durP1;ratioP1;P1;durP2;ratioP2;P2;SDS_P1;SDS_P2;PMS_P1;PMS_P2;Temp;Humidity;BMP_temperature;BMP_pressure;BME280_temperature;BME280_humidity;BME280_pressure;Samples;Min_cycle;Max_cycle;Signal;HPM_P1;HPM_P2
2021/01/13 00:00:44;;;;;;;33.53;16.45;;;;;;;-2.60;74.64;99637.42;1670796;85;21490;-82
2021/01/13 00:03:11;;;;;;;28.30;14.95;;;;;;;-2.62;74.26;99640.45;1670032;86;22372;-81
2021/01/13 00:05:40;;;;;;;33.88;15.28;;;;;;;-2.61;73.87;99641.73;1669588;86;21156;-81
2021/01/13 00:08:08;;;;;;;25.20;13.30;;;;;;;-2.61;73.70;99641.73;1668690;84;21203;-81
2021/01/13 00:10:36;;;;;;;27.32;14.28;;;;;;;-2.63;73.47;99636.13;1668370;85;21200;-82
2021/01/13 00:13:05;;;;;;;25.97;13.65;;;;;;;-2.65;73.41;99636.53;1669013;84;21822;-82
2021/01/13 00:15:36;;;;;;;25.05;13.45;;;;;;;-2.64;73.37;99620.23;1656834;86;21170;-80
2021/01/13 00:18:04;;;;;;;23.98;12.82;;;;;;;-2.66;73.25;99611.62;1658504;86;22207;-80
2021/01/13 00:20:32;;;;;;;23.83;12.68;;;;;;;-2.71;73.14;99614.16;1634024;82;21202;-79
2021/01/13 00:23:01;;;;;;;24.52;13.05;;;;;;;-2.73;73.17;99602.12;1661397;86;21141;-80
2021/01/13 00:25:29;;;;;;;26.35;14.10;;;;;;;-2.79;73.12;99603.77;1650927;87;21395;-83
2021/01/13 00:27:57;;;;;;;28.87;14.83;;;;;;;-2.80;73.35;99600.77;1663608;84;21146;-83
2021/01/13 00:30:25;;;;;;;26.60;13.83;;;;;;;-2.78;73.56;99608.52;1651754;87;21205;-82
2021/01/13 00:32:52;;;;;;;24.57;13.68;;;;;;;-2.77;73.58;99595.63;1663675;86;21083;-82
2021/01/13 00:35:21;;;;;;;20.80;11.33;;;;;;;-2.75;73.81;99597.80;1651397;87;21186;-82
2021/01/13 00:37:49;;;;;;;19.73;10.78;;;;;;;-2.72;73.82;99603.39;1661028;84;21819;-79
2021/01/13 00:40:16;;;;;;;22.40;11.70;;;;;;;-2.77;73.71;99599.49;1647903;86;21225;-80
2021/01/13 00:42:46;;;;;;;21.60;12.17;;;;;;;-2.79;73.15;99590.02;1653507;86;21652;-79
2021/01/13 00:45:17;;;;;;;20.60;11.03;;;;;;;-2.85;72.69;99603.73;1702587;82;21608;-80
2021/01/13 00:47:50;;;;;;;21.73;12.20;;;;;;;-2.89;72.97;99586.52;1679101;84;21205;-80
2021/01/13 00:50:19;;;;;;;20.03;11.27;;;;;;;-2.91;72.75;99584.78;1698696;83;22791;-81
2021/01/13 00:52:48;;;;;;;24.50;12.10;;;;;;;-2.94;72.74;99572.73;1689934;84;21179;-80
2021/01/13 00:55:16;;;;;;;19.13;11.00;;;;;;;-2.95;72.84;99564.55;1705471;84;21163;-78
2021/01/13 00:57:49;;;;;;;23.73;11.08;;;;;;;-2.96;72.50;99580.44;1706472;84;21163;-81
2021/01/13 01:00:18;;;;;;;24.77;12.93;;;;;;;-3.00;72.46;99573.96;1706542;84;21125;-82
2021/01/13 01:02:48;;;;;;;22.58;12.43;;;;;;;-3.01;72.30;99558.08;1704917;84;21315;-81
2021/01/13 01:05:16;;;;;;;21.52;11.00;;;;;;;-3.01;72.27;99560.22;1705772;84;21208;-80
2021/01/13 01:07:45;;;;;;;23.63;12.43;;;;;;;-3.02;71.93;99557.19;1705886;82;21156;-80
2021/01/13 01:10:24;;;;;;;20.30;11.97;;;;;;;-3.02;71.74;99566.64;1694541;82;21133;-80
2021/01/13 01:12:51;;;;;;;24.17;11.97;;;;;;;-3.05;71.69;99569.20;1667838;84;21603;-78
2021/01/13 01:15:19;;;;;;;22.07;12.47;;;;;;;-3.06;71.73;99576.47;1674737;85;21395;-81
2021/01/13 01:17:51;;;;;;;26.20;13.68;;;;;;;-3.06;71.71;99573.89;1663704;84;21183;-79
2021/01/13 01:20:18;;;;;;;23.90;12.33;;;;;;;-3.04;71.88;99574.34;1664436;85;21265;-79
2021/01/13 01:23:00;;;;;;;25.57;13.67;;;;;;;-3.06;71.39;99572.61;1670028;85;21183;-79
2021/01/13 01:25:30;;;;;;;25.23;13.07;;;;;;;-3.07;71.48;99563.17;1658571;86;21197;-79
2021/01/13 01:28:00;;;;;;;26.52;12.03;;;;;;;-3.05;71.58;99561.47;1657807;86;21377;-78
2021/01/13 01:30:29;;;;;;;25.40;12.13;;;;;;;-3.05;71.28;99551.16;1658608;86;21584;-78
2021/01/13 01:32:58;;;;;;;23.80;12.58;;;;;;;-3.06;71.09;99553.28;1657454;85;21193;-79
2021/01/13 01:35:25;;;;;;;20.80;11.60;;;;;;;-3.04;71.09;99548.58;1657777;86;21228;-79
2021/01/13 01:37:55;;;;;;;23.07;12.37;;;;;;;-3.07;70.94;99538.70;1658335;86;21165;-80
2021/01/13 01:40:23;;;;;;;25.62;12.90;;;;;;;-3.08;70.98;99534.38;1656248;86;21448;-79
2021/01/13 01:42:55;;;;;;;19.80;10.70;;;;;;;-3.09;71.10;99530.09;1638629;87;21198;-79
2021/01/13 01:45:30;;;;;;;29.25;13.72;;;;;;;-3.11;71.01;99515.05;1638482;87;22325;-79
2021/01/13 01:48:13;;;;;;;23.63;12.47;;;;;;;-3.13;71.21;99516.73;1638122;87;21246;-81
2021/01/13 01:50:44;;;;;;;26.43;12.90;;;;;;;-3.12;70.94;99506.46;1642680;85;21123;-77
2021/01/13 01:53:24;;;;;;;;;;;;;;;-3.13;70.84;99506.44;1640436;87;22407;-78
2021/01/13 01:56:04;;;;;;;26.13;13.93;;;;;;;-3.13;71.37;99508.58;1637560;87;20615;-79
2021/01/13 01:58:31;;;;;;;28.13;14.90;;;;;;;-3.14;71.17;99513.73;1637580;87;21681;-77
2021/01/13 02:01:01;;;;;;;31.10;16.20;;;;;;;-3.15;71.22;99501.30;1624287;87;21171;-79
2021/01/13 02:03:53;;;;;;;31.52;14.50;;;;;;;-3.13;71.23;99492.27;1626111;88;21140;-78
2021/01/13 02:06:24;;;;;;;31.65;14.78;;;;;;;-3.14;70.98;99491.41;1633414;87;21221;-78
2021/01/13 02:08:53;;;;;;;29.32;13.90;;;;;;;-3.12;71.17;99495.30;1645203;87;21165;-78
2021/01/13 02:11:21;;;;;;;27.22;12.35;;;;;;;-3.12;70.74;99485.00;1645239;87;21273;-78
2021/01/13 02:13:49;;;;;;;33.53;14.83;;;;;;;-3.13;70.33;99489.69;1569904;87;21185;-78
2021/01/13 02:16:18;;;;;;;24.23;13.60;;;;;;;-3.20;70.36;99487.09;1644662;87;21243;-78
2021/01/13 02:18:48;;;;;;;31.03;14.87;;;;;;;-3.20;70.32;99490.95;1644910;87;21344;-78
2021/01/13 02:21:20;;;;;;;23.93;10.23;;;;;;;-3.21;70.33;99480.20;1630031;86;21212;-79
2021/01/13 02:23:51;;;;;;;31.27;14.37;;;;;;;-3.25;70.31;99477.58;1622370;87;21685;-77
2021/01/13 02:26:30;;;;;;;31.30;14.18;;;;;;;-3.24;70.25;99487.05;1643730;87;21669;-78
2021/01/13 02:29:10;;;;;;;26.33;13.17;;;;;;;-3.26;70.35;99488.31;1644671;87;21716;-78
2021/01/13 02:31:59;;;;;;;26.17;13.13;;;;;;;-3.28;70.16;99470.70;1644770;87;22359;-78
2021/01/13 02:34:57;;;;;;;29.13;13.50;;;;;;;-3.27;70.23;99458.25;1646755;87;21207;-80
2021/01/13 02:37:43;;;;;;;25.60;13.07;;;;;;;-3.31;70.09;99459.50;1645730;87;21176;-79
2021/01/13 02:40:23;;;;;;;25.53;13.77;;;;;;;-3.31;69.95;99470.69;1644541;87;21181;-79
2021/01/13 02:43:02;;;;;;;24.67;13.77;;;;;;;-3.36;69.91;99458.17;1669663;85;21153;-83
2021/01/13 02:45:37;;;;;;;25.37;12.50;;;;;;;-3.37;70.12;99448.73;1693746;83;21464;-81
2021/01/13 02:48:14;;;;;;;25.80;13.70;;;;;;;-3.35;70.19;99441.89;1693943;84;21374;-81
2021/01/13 02:50:46;;;;;;;21.50;12.13;;;;;;;-3.35;70.25;99434.17;1694081;84;21615;-82
2021/01/13 02:53:22;;;;;;;26.23;14.00;;;;;;;-3.34;70.29;99435.88;1694136;84;21191;-81
2021/01/13 02:56:18;;;;;;;23.80;13.58;;;;;;;-3.33;70.32;99429.89;1694410;84;21115;-80
2021/01/13 02:58:49;;;;;;;31.27;15.50;;;;;;;-3.34;70.89;99419.14;1693363;84;21806;-83
2021/01/13 03:01:17;;;;;;;28.35;15.70;;;;;;;-3.35;70.66;99423.87;1668411;84;21171;-78
2021/01/13 03:03:47;;;;;;;36.10;17.03;;;;;;;-3.37;70.33;99421.27;1694093;83;21179;-80
2021/01/13 03:06:16;;;;;;;33.33;15.88;;;;;;;-3.38;70.48;99423.42;1694240;83;21127;-81
2021/01/13 03:08:47;;;;;;;31.57;15.47;;;;;;;-3.34;70.72;99429.44;1694348;84;21063;-81
2021/01/13 03:11:20;;;;;;;30.87;16.07;;;;;;;-3.33;70.64;99424.75;1694266;84;21218;-82
2021/01/13 03:14:12;;;;;;;34.97;16.73;;;;;;;-3.28;70.56;99415.33;1819969;77;22436;-75
2021/01/13 03:16:48;;;;;;;28.27;14.90;;;;;;;-3.30;70.71;99419.61;1789099;78;21110;-76
2021/01/13 03:19:31;;;;;;;25.70;12.53;;;;;;;-3.26;70.96;99425.66;1788362;80;21203;-75
2021/01/13 03:22:04;;;;;;;31.82;17.17;;;;;;;-3.26;70.62;99413.64;1788360;78;21617;-75
2021/01/13 03:24:55;;;;;;;27.22;13.78;;;;;;;-3.23;70.94;99411.50;1789176;80;21146;-76
2021/01/13 03:27:23;;;;;;;33.38;16.27;;;;;;;-3.21;70.76;99411.95;1789137;78;21624;-77
2021/01/13 03:29:54;;;;;;;28.87;15.30;;;;;;;-3.23;70.53;99408.50;1789230;78;21651;-77
2021/01/13 03:32:29;;;;;;;26.23;14.70;;;;;;;-3.24;70.69;99405.94;1806398;79;21217;-77
2021/01/13 03:35:13;;;;;;;28.45;15.23;;;;;;;-3.22;70.73;99391.33;1815570;79;22333;-77
2021/01/13 03:37:59;;;;;;;27.17;13.05;;;;;;;-3.24;70.61;99390.05;1815829;79;21168;-78
2021/01/13 03:40:31;;;;;;;35.60;17.47;;;;;;;-3.23;71.16;99385.32;1815935;79;21581;-79
2021/01/13 03:43:04;;;;;;;28.93;14.93;;;;;;;-3.25;71.07;99381.87;1816402;79;21162;-78
2021/01/13 03:45:37;;;;;;;31.30;14.73;;;;;;;-3.24;71.06;99369.88;1790014;79;22455;-79
2021/01/13 03:48:11;;;;;;;31.23;15.40;;;;;;;-3.23;70.83;99373.73;1816089;76;21210;-78
2021/01/13 03:50:43;;;;;;;27.33;14.93;;;;;;;-3.23;70.56;99385.32;1809847;79;21155;-79
2021/01/13 03:53:14;;;;;;;29.73;14.90;;;;;;;-3.28;70.54;99374.14;1816291;77;21182;-79
2021/01/13 03:55:43;;;;;;;26.97;14.20;;;;;;;-3.29;70.62;99372.42;1816458;79;21654;-80
2021/01/13 03:58:45;;;;;;;29.57;15.03;;;;;;;-3.30;70.89;99364.68;1815879;77;21371;-79
2021/01/13 04:01:25;;;;;;;29.70;16.52;;;;;;;-3.27;71.21;99368.55;1783750;80;21720;-80
2021/01/13 04:04:35;;;;;;;33.80;16.63;;;;;;;-3.26;71.16;99369.86;1770824;80;21229;-79
2021/01/13 04:07:04;;;;;;;35.15;15.13;;;;;;;-3.27;70.72;99354.39;1729054;81;21137;-78
2021/01/13 04:09:32;;;;;;;30.67;15.97;;;;;;;-3.27;70.73;99352.67;1768508;80;21142;-79
2021/01/13 04:12:14;;;;;;;34.78;16.07;;;;;;;-3.29;70.50;99353.11;1789500;80;21359;-78
2021/01/13 04:14:55;;;;;;;31.37;15.08;;;;;;;-3.26;70.88;99354.41;1774622;80;21167;-79
2021/01/13 04:17:25;;;;;;;30.00;14.90;;;;;;;-3.27;71.09;99346.23;1774466;80;21273;-78
2021/01/13 04:19:54;;;;;;;31.50;15.08;;;;;;;-3.27;71.23;99339.80;1773996;80;21563;-79
2021/01/13 04:22:26;;;;;;;27.37;15.08;;;;;;;-3.27;70.82;99333.36;1775820;80;21315;-82
2021/01/13 04:24:54;;;;;;;24.05;14.15;;;;;;;-3.28;71.09;99337.23;1776726;80;21384;-82
2021/01/13 04:27:24;;;;;;;32.50;15.70;;;;;;;-3.29;71.20;99343.22;1776535;80;21175;-83
2021/01/13 04:29:53;;;;;;;29.83;15.93;;;;;;;-3.32;71.47;99329.90;1776163;80;21143;-83
2021/01/13 04:32:21;;;;;;;31.87;15.37;;;;;;;-3.31;71.50;99331.64;1776062;80;21191;-83
2021/01/13 04:34:50;;;;;;;34.50;17.87;;;;;;;-3.32;71.59;99326.03;1776063;80;21175;-85
2021/01/13 04:37:18;;;;;;;37.23;18.03;;;;;;;-3.33;71.82;99324.33;1775494;80;21476;-84
2021/01/13 04:39:47;;;;;;;33.53;16.62;;;;;;;-3.33;71.90;99332.05;1748935;80;21170;-81
2021/01/13 04:42:19;;;;;;;29.63;14.50;;;;;;;-3.30;71.74;99332.49;1778164;80;21179;-82
2021/01/13 04:45:06;;;;;;;27.62;14.75;;;;;;;-3.30;71.76;99324.77;1751236;80;21191;-84
2021/01/13 04:47:51;;;;;;;31.50;15.10;;;;;;;-3.32;71.69;99320.89;1778366;78;21187;-83
2021/01/13 04:50:19;;;;;;;35.17;16.90;;;;;;;-3.31;71.95;99320.05;1776903;80;21423;-83
2021/01/13 04:52:50;;;;;;;37.53;18.90;;;;;;;-3.28;72.16;99314.06;1764043;78;21215;-84
2021/01/13 04:55:25;;;;;;;38.15;18.45;;;;;;;-3.26;72.30;99308.49;1777031;80;21167;-83
2021/01/13 04:58:28;;;;;;;32.83;16.97;;;;;;;-3.26;71.82;99308.06;1755205;80;21175;-82
2021/01/13 05:01:17;;;;;;;37.98;18.12;;;;;;;-3.26;71.97;99306.77;1763780;78;21174;-85
2021/01/13 05:04:09;;;;;;;36.30;17.15;;;;;;;-3.26;71.75;99300.33;1761692;80;22297;-79
2021/01/13 05:06:48;;;;;;;30.50;16.85;;;;;;;-3.27;71.68;99304.17;1746724;81;24467;-80
2021/01/13 05:09:17;;;;;;;30.77;16.45;;;;;;;-3.28;72.20;99295.59;1762447;80;21650;-80
2021/01/13 05:11:49;;;;;;;33.42;16.77;;;;;;;-3.27;71.97;99298.59;1773832;79;21154;-80
2021/01/13 05:14:19;;;;;;;31.68;16.62;;;;;;;-3.28;71.71;99299.45;1775804;80;21103;-80
2021/01/13 05:16:52;;;;;;;35.37;16.23;;;;;;;-3.28;71.67;99294.31;1776698;80;21410;-81
2021/01/13 05:19:42;;;;;;;32.77;16.67;;;;;;;-3.30;71.71;99287.44;1776398;80;21139;-81
2021/01/13 05:22:14;;;;;;;30.07;16.07;;;;;;;-3.30;71.96;99288.28;1768244;80;21119;-81
2021/01/13 05:24:43;;;;;;;34.10;16.87;;;;;;;-3.29;71.95;99297.75;1776735;80;21214;-80
2021/01/13 05:27:28;;;;;;;30.33;15.73;;;;;;;-3.30;72.16;99288.28;1747670;80;21163;-81
2021/01/13 05:30:00;;;;;;;37.27;17.57;;;;;;;-3.30;72.01;99287.44;1728674;82;21375;-81
2021/01/13 05:32:28;;;;;;;33.87;18.03;;;;;;;-3.30;72.25;99288.28;1762284;79;21210;-78
2021/01/13 05:34:57;;;;;;;36.17;18.33;;;;;;;-3.32;72.25;99286.13;1738104;82;21202;-79
2021/01/13 05:37:51;;;;;;;39.70;19.97;;;;;;;-3.30;72.28;99280.56;1717340;81;21200;-77
2021/01/13 05:40:21;;;;;;;39.30;18.70;;;;;;;-3.33;72.47;99280.56;1751575;80;21345;-80
2021/01/13 05:42:49;;;;;;;43.17;20.27;;;;;;;-3.30;72.49;99277.98;1764400;79;22353;-77
2021/01/13 05:45:18;;;;;;;35.20;18.32;;;;;;;-3.27;72.88;99274.56;1778922;79;21155;-76
2021/01/13 05:47:53;;;;;;;32.33;17.03;;;;;;;-3.25;72.98;99271.14;1754634;81;21196;-77
2021/01/13 05:50:23;;;;;;;38.17;19.90;;;;;;;-3.24;72.91;99270.30;1763427;80;21591;-78
2021/01/13 05:52:53;;;;;;;35.73;18.90;;;;;;;-3.23;73.24;99274.59;1769206;80;21143;-79
2021/01/13 05:55:24;;;;;;;48.80;25.25;;;;;;;-3.22;73.04;99267.31;1754040;80;22372;-79
2021/01/13 05:57:55;;;;;;;45.05;22.10;;;;;;;-3.22;73.21;99271.17;1778550;79;21187;-74
2021/01/13 06:00:25;;;;;;;39.67;20.80;;;;;;;-3.22;73.43;99267.31;1774458;79;21758;-74
2021/01/13 06:03:03;;;;;;;39.97;21.47;;;;;;;-3.22;73.44;99266.02;1747220;79;21643;-73
2021/01/13 06:11:43;;;;;;;37.77;19.47;;;;;;;-3.22;73.58;99262.16;1704756;82;21296;-75
2021/01/13 06:14:11;;;;;;;37.85;19.90;;;;;;;-3.23;73.89;99253.98;1663984;83;21264;-73
2021/01/13 06:16:39;;;;;;;43.92;20.52;;;;;;;-3.21;74.41;99258.72;1648093;85;21196;-75
2021/01/13 06:19:07;;;;;;;36.60;19.13;;;;;;;-3.18;73.93;99260.01;1651169;83;21672;-76
2021/01/13 06:21:35;;;;;;;35.93;16.90;;;;;;;-3.15;73.88;99256.61;1633651;85;21199;-75
2021/01/13 06:24:09;;;;;;;34.48;16.77;;;;;;;-3.13;73.42;99266.91;1670396;81;21277;-73
2021/01/13 06:26:46;;;;;;;39.60;20.03;;;;;;;-3.18;73.21;99257.44;1718375;81;21182;-74
2021/01/13 06:29:28;;;;;;;44.77;21.47;;;;;;;-3.19;73.83;99265.17;1733489;81;21242;-75
2021/01/13 06:32:08;;;;;;;41.90;19.33;;;;;;;-3.12;73.69;99260.91;1823805;77;22902;-74
2021/01/13 06:34:43;;;;;;;39.70;21.07;;;;;;;-3.17;73.44;99266.90;1817542;78;21107;-74
2021/01/13 06:37:47;;;;;;;43.97;22.83;;;;;;;-3.17;73.64;99265.61;1785048;80;21405;-73
2021/01/13 06:40:18;;;;;;;48.03;22.37;;;;;;;-3.14;73.86;99256.18;1787104;80;21198;-78
2021/01/13 06:42:46;;;;;;;36.97;18.53;;;;;;;-3.14;73.40;99253.61;1798370;78;21154;-75
2021/01/13 06:45:14;;;;;;;47.97;20.80;;;;;;;-3.18;73.44;99247.13;1792019;78;21134;-75
2021/01/13 06:47:56;;;;;;;48.20;22.67;;;;;;;-3.20;73.56;99247.58;1800416;78;21169;-76
2021/01/13 06:50:37;;;;;;;47.67;22.87;;;;;;;-3.19;73.69;99241.56;1790452;78;22690;-73
2021/01/13 06:53:09;;;;;;;45.08;21.65;;;;;;;-3.18;73.79;99234.69;1811473;78;21024;-77
2021/01/13 06:55:40;;;;;;;51.40;21.77;;;;;;;-3.17;73.88;99235.99;1823722;78;21102;-77
2021/01/13 06:58:16;;;;;;;42.40;21.73;;;;;;;-3.16;73.92;99240.27;1823566;78;21209;-78
2021/01/13 07:00:47;;;;;;;44.63;21.43;;;;;;;-3.12;73.99;99237.73;1823681;78;21803;-77
2021/01/13 07:06:11;;;;;;;47.07;22.40;;;;;;;-3.02;73.91;99224.88;1846079;75;22678;-77
2021/01/13 07:08:38;;;;;;;44.33;20.03;;;;;;;-3.02;73.86;99233.03;1788142;79;21139;-76
2021/01/13 07:11:10;;;;;;;35.95;19.05;;;;;;;-3.01;73.79;99224.47;1780446;80;21778;-76
2021/01/13 07:13:41;;;;;;;47.13;22.63;;;;;;;-3.03;73.66;99225.74;1725818;81;22251;-77
2021/01/13 07:16:08;;;;;;;39.75;18.67;;;;;;;-3.00;73.70;99228.75;1669013;78;21406;-77
2021/01/13 07:18:37;;;;;;;45.45;22.20;;;;;;;-2.98;73.79;99223.18;1681166;85;21210;-76
2021/01/13 07:21:11;;;;;;;44.27;20.33;;;;;;;-2.97;73.57;99227.46;1694199;83;21182;-79
2021/01/13 07:23:46;;;;;;;41.53;21.60;;;;;;;-2.93;73.56;99224.05;1679220;85;21782;-77
2021/01/13 07:26:14;;;;;;;48.13;21.85;;;;;;;-2.94;73.70;99227.49;1705859;82;21157;-76
2021/01/13 07:28:42;;;;;;;48.25;19.55;;;;;;;-2.93;73.75;99224.05;1680952;85;21182;-76
2021/01/13 07:31:12;;;;;;;62.55;24.60;;;;;;;-2.92;73.79;99223.20;1678115;84;22241;-77
2021/01/13 07:33:42;;;;;;;51.77;23.77;;;;;;;-2.93;73.59;99215.03;1626671;85;21191;-77
2021/01/13 07:36:15;;;;;;;51.27;20.87;;;;;;;-2.94;73.72;99204.30;1708022;82;21828;-79
2021/01/13 07:38:44;;;;;;;48.83;24.32;;;;;;;-2.94;73.64;99203.02;1708035;84;21638;-77
2021/01/13 07:41:11;;;;;;;47.63;23.20;;;;;;;-2.93;73.85;99198.72;1681496;83;21192;-77
2021/01/13 07:44:03;;;;;;;59.97;26.50;;;;;;;-2.92;73.58;99181.98;1689487;83;21176;-77
2021/01/13 07:46:35;;;;;;;57.67;26.77;;;;;;;-2.91;73.77;99182.41;1684410;83;21173;-75
2021/01/13 07:49:24;;;;;;;57.03;28.75;;;;;;;-2.89;73.86;99174.69;1687493;83;22356;-79
2021/01/13 07:51:53;;;;;;;65.75;34.83;;;;;;;-2.87;74.04;99166.53;1714082;83;21156;-76
2021/01/13 07:54:33;;;;;;;47.03;22.58;;;;;;;-2.83;74.20;99157.92;1714227;83;21176;-77
2021/01/13 07:57:06;;;;;;;158.75;64.77;;;;;;;-2.80;74.04;99151.08;1708801;84;21211;-76
2021/01/13 07:59:47;;;;;;;199.47;87.08;;;;;;;-2.80;73.76;99142.05;1680977;85;22199;-76
2021/01/13 08:02:36;;;;;;;;;;;;;;;-2.80;73.31;99144.63;1709760;84;21239;-76
2021/01/13 08:05:38;;;;;;;159.63;61.68;;;;;;;-2.80;73.11;99148.50;1701778;83;20238;-80
2021/01/13 08:08:09;;;;;;;272.15;108.92;;;;;;;-2.79;73.10;99143.76;1669567;84;21174;-76
2021/01/13 08:10:38;;;;;;;118.57;50.25;;;;;;;-2.71;72.99;99142.91;1675726;84;21638;-78
2021/01/13 08:13:34;;;;;;;91.80;37.88;;;;;;;-2.63;73.14;99142.49;1674465;85;21183;-79
2021/01/13 08:16:52;;;;;;;134.52;51.85;;;;;;;-2.55;72.87;99135.63;1677270;85;21499;-77
2021/01/13 08:19:58;;;;;;;127.53;44.58;;;;;;;-2.46;72.43;99133.05;1684442;84;21648;-76
2021/01/13 08:22:27;;;;;;;35.23;16.75;;;;;;;-2.36;72.21;99134.75;1677400;85;21231;-77
2021/01/13 08:27:39;;;;;;;63.30;27.50;;;;;;;-2.26;70.64;99119.27;1793736;76;22404;-72
2021/01/13 08:30:11;;;;;;;125.35;45.88;;;;;;;-2.31;70.47;99110.25;1747105;81;21130;-78
2021/01/13 08:32:41;;;;;;;160.78;41.18;;;;;;;-2.26;70.18;99103.79;1692758;82;22314;-77
2021/01/13 08:38:10;;;;;;;32.63;15.53;;;;;;;-2.20;68.87;99103.79;1908562;73;22661;-77
2021/01/13 08:40:39;;;;;;;46.68;18.50;;;;;;;-2.24;68.87;99099.49;1883759;75;21138;-79
2021/01/13 08:43:14;;;;;;;27.10;12.47;;;;;;;-2.24;68.78;99091.31;1868696;76;21433;-78
2021/01/13 08:45:46;;;;;;;27.37;12.43;;;;;;;-2.21;69.01;99088.75;1857315;74;21620;-79
2021/01/13 08:48:21;;;;;;;55.85;23.35;;;;;;;-2.11;68.93;99085.71;1856989;74;21185;-77
2021/01/13 08:51:11;;;;;;;53.08;21.60;;;;;;;-1.99;68.90;99088.24;1870081;76;21094;-77
2021/01/13 08:53:40;;;;;;;38.00;15.72;;;;;;;-1.89;68.19;99087.78;1812938;79;21138;-78
2021/01/13 08:56:09;;;;;;;59.53;18.75;;;;;;;-1.81;66.95;99083.90;1820123;78;21799;-79
2021/01/13 08:58:37;;;;;;;37.63;16.00;;;;;;;-1.78;66.79;99078.72;1827493;76;21158;-73
2021/01/13 09:01:08;;;;;;;39.25;14.15;;;;;;;-1.72;66.78;99072.25;1771013;76;21201;-74
2021/01/13 09:03:41;;;;;;;26.48;13.22;;;;;;;-1.65;67.33;99070.06;1835663;76;21602;-73
2021/01/13 09:06:21;;;;;;;23.45;13.00;;;;;;;-1.53;67.19;99068.70;1805625;76;21138;-76
2021/01/13 09:08:52;;;;;;;24.10;11.97;;;;;;;-1.45;66.52;99069.08;1790501;77;21444;-73
2021/01/13 09:11:36;;;;;;;57.65;19.77;;;;;;;-1.40;67.46;99060.46;1842291;77;21814;-76
2021/01/13 09:14:24;;;;;;;61.80;21.60;;;;;;;-1.31;66.59;99070.73;1814727;77;21143;-75
2021/01/13 09:16:57;;;;;;;36.70;17.32;;;;;;;-1.34;65.36;99064.72;1808409;77;21130;-74
2021/01/13 09:19:37;;;;;;;32.30;17.35;;;;;;;-1.38;65.42;99065.59;1799340;77;21161;-73
2021/01/13 09:22:09;;;;;;;34.50;15.88;;;;;;;-1.41;65.41;99056.59;1805993;79;21369;-75
2021/01/13 09:24:42;;;;;;;39.38;18.40;;;;;;;-1.45;65.87;99061.34;1826161;77;21594;-75
2021/01/13 09:27:12;;;;;;;33.02;17.15;;;;;;;-1.50;66.16;99063.94;1775755;75;21394;-74
2021/01/13 09:29:52;;;;;;;79.45;35.63;;;;;;;-1.52;66.86;99078.17;1745668;80;21144;-75
2021/01/13 09:32:22;;;;;;;68.90;29.92;;;;;;;-1.49;67.11;99082.02;1744325;80;21192;-75
2021/01/13 09:34:55;;;;;;;43.02;21.52;;;;;;;-1.52;67.31;99074.30;1753399;80;21385;-74
2021/01/13 09:37:24;;;;;;;47.43;22.95;;;;;;;-1.58;67.22;99078.20;1787911;80;21191;-74
2021/01/13 09:40:05;;;;;;;60.33;24.82;;;;;;;-1.66;67.46;99068.33;1757422;80;21200;-74
2021/01/13 09:42:40;;;;;;;43.13;20.57;;;;;;;-1.71;67.96;99071.36;1782123;80;21155;-74
2021/01/13 09:45:09;;;;;;;44.42;20.88;;;;;;;-1.69;68.32;99068.34;1733819;81;21231;-73
2021/01/13 09:47:39;;;;;;;26.10;15.05;;;;;;;-1.71;67.88;99058.02;1760481;79;21383;-76
2021/01/13 09:50:10;;;;;;;25.95;13.62;;;;;;;-1.76;67.07;99057.63;1763818;79;21198;-77
2021/01/13 09:55:25;;;;;;;48.03;24.30;;;;;;;-1.81;66.31;99052.92;1884099;76;22807;-77
2021/01/13 09:57:59;;;;;;;31.65;15.80;;;;;;;-1.91;66.71;99050.38;1818181;77;21128;-76
2021/01/13 10:00:28;;;;;;;23.00;11.18;;;;;;;-1.92;66.78;99048.65;1848022;76;21380;-77
2021/01/13 10:02:56;;;;;;;20.82;10.60;;;;;;;-1.98;66.46;99040.95;1848272;75;21171;-75
2021/01/13 10:05:24;;;;;;;24.50;11.95;;;;;;;-2.04;66.60;99037.09;1842030;76;21214;-77
2021/01/13 10:07:55;;;;;;;24.35;11.00;;;;;;;-2.07;66.72;99034.95;1786083;78;21200;-76
2021/01/13 10:10:25;;;;;;;22.67;11.90;;;;;;;-2.13;66.50;99019.08;1827305;77;21178;-78
2021/01/13 10:12:52;;;;;;;24.85;12.05;;;;;;;-2.15;66.60;99016.93;1803952;78;21189;-75
2021/01/13 10:15:21;;;;;;;27.58;13.53;;;;;;;-2.14;66.72;99010.89;1825277;77;21126;-76
2021/01/13 10:17:49;;;;;;;34.08;18.50;;;;;;;-2.12;66.75;99004.89;1767600;79;21163;-76
2021/01/13 10:23:00;;;;;;;30.90;12.03;;;;;;;-2.04;66.96;99002.27;1846364;75;22814;-77
2021/01/13 10:25:33;;;;;;;23.42;11.00;;;;;;;-2.06;67.17;98994.97;1791827;78;21156;-76
2021/01/13 10:28:01;;;;;;;22.37;9.80;;;;;;;-2.07;66.84;98996.25;1776712;77;21363;-75
2021/01/13 10:30:31;;;;;;;35.63;17.80;;;;;;;-2.12;66.83;98996.27;1751960;81;21205;-76
2021/01/13 10:32:59;;;;;;;29.70;13.68;;;;;;;-2.12;67.11;98998.84;1779805;77;21134;-77
2021/01/13 10:35:38;;;;;;;21.50;10.35;;;;;;;-2.16;66.76;98989.44;1814389;78;21119;-76
2021/01/13 10:38:06;;;;;;;19.95;10.23;;;;;;;-2.16;66.91;98988.14;1813649;78;21171;-78
2021/01/13 10:40:35;;;;;;;22.93;10.18;;;;;;;-2.18;67.04;98984.70;1743820;81;21341;-78
2021/01/13 10:43:10;;;;;;;22.67;11.35;;;;;;;-2.15;67.05;98979.52;1754893;80;21207;-78
2021/01/13 10:45:37;;;;;;;32.55;12.95;;;;;;;-2.12;66.62;98976.52;1800943;78;21095;-76
2021/01/13 10:48:06;;;;;;;19.65;11.88;;;;;;;-2.13;66.38;98969.63;1743601;80;21637;-75
2021/01/13 10:50:35;;;;;;;16.52;9.28;;;;;;;-2.15;66.03;98962.32;1774473;80;21625;-78
2021/01/13 10:53:04;;;;;;;19.50;9.45;;;;;;;-2.19;65.81;98964.48;1716934;80;21379;-77
2021/01/13 10:55:32;;;;;;;17.60;9.00;;;;;;;-2.20;66.12;98951.61;1745445;80;21273;-78
2021/01/13 10:58:56;;;;;;;16.00;8.40;;;;;;;-2.11;66.20;98945.97;1807574;79;22611;-73
2021/01/13 11:01:25;;;;;;;14.43;8.05;;;;;;;-2.13;65.85;98945.12;1765946;79;21105;-76
2021/01/13 11:03:53;;;;;;;18.37;8.50;;;;;;;-2.09;65.75;98939.93;1771897;80;22384;-74
2021/01/13 11:06:24;;;;;;;17.65;9.18;;;;;;;-2.08;65.24;98936.06;1757044;80;21208;-81
2021/01/13 11:08:53;;;;;;;19.82;11.15;;;;;;;-2.13;64.64;98932.66;1741388;81;21154;-75
2021/01/13 11:11:21;;;;;;;30.68;11.12;;;;;;;-2.15;64.90;98931.80;1748165;80;21669;-74
2021/01/13 11:13:49;;;;;;;17.67;9.53;;;;;;;-2.16;65.57;98937.41;1743778;81;21187;-75
2021/01/13 11:16:17;;;;;;;16.15;8.00;;;;;;;-2.15;65.66;98935.23;1746583;81;21426;-76
2021/01/13 11:18:45;;;;;;;18.82;9.28;;;;;;;-2.13;65.72;98930.08;1746263;81;21394;-74
2021/01/13 11:21:12;;;;;;;18.10;8.93;;;;;;;-2.17;65.88;98927.94;1748789;80;21194;-74
2021/01/13 11:23:45;;;;;;;14.90;8.03;;;;;;;-2.22;65.76;98921.09;1720969;81;21170;-73
2021/01/13 11:26:13;;;;;;;21.02;8.60;;;;;;;-2.27;65.75;98918.98;1749433;80;21620;-74
2021/01/13 11:28:43;;;;;;;13.70;8.33;;;;;;;-2.25;66.62;98914.67;1729121;81;22161;-74
2021/01/13 11:31:11;;;;;;;15.05;7.25;;;;;;;-2.17;66.35;98911.61;1746361;81;21642;-74
2021/01/13 11:33:45;;;;;;;14.68;6.58;;;;;;;-2.11;67.93;98907.72;1747180;80;21555;-77
2021/01/13 11:36:15;;;;;;;13.08;8.13;;;;;;;-2.05;68.26;98905.08;1753893;80;21151;-76
2021/01/13 11:38:58;;;;;;;15.55;9.08;;;;;;;-1.98;66.37;98901.63;1741325;81;21602;-75
2021/01/13 11:42:04;;;;;;;16.15;8.58;;;;;;;-2.03;65.38;98889.16;1706723;83;21301;-76
2021/01/13 11:45:09;;;;;;;14.60;8.08;;;;;;;-2.07;65.97;98884.03;1692567;83;21759;-76
2021/01/13 11:47:42;;;;;;;12.00;7.03;;;;;;;-2.06;66.27;98884.03;1712657;83;21224;-74
2021/01/13 11:50:15;;;;;;;13.38;7.90;;;;;;;-2.02;66.58;98888.31;1712748;83;21167;-75
2021/01/13 11:52:45;;;;;;;16.65;8.50;;;;;;;-2.00;66.10;98887.87;1694623;84;21179;-77
2021/01/13 11:55:13;;;;;;;12.15;7.22;;;;;;;-2.04;65.87;98878.44;1693393;84;21304;-78
2021/01/13 11:57:46;;;;;;;19.25;9.63;;;;;;;-2.04;66.08;98878.44;1687605;82;21644;-76
2021/01/13 12:00:27;;;;;;;21.10;9.33;;;;;;;-2.03;66.16;98871.10;1746258;82;21148;-75
2021/01/13 12:02:57;;;;;;;21.15;9.58;;;;;;;-2.03;65.88;98867.23;1729867;81;21558;-75
2021/01/13 12:05:37;;;;;;;30.82;9.65;;;;;;;-2.00;66.35;98856.91;1718556;82;21690;-74
2021/01/13 12:08:10;;;;;;;18.52;7.65;;;;;;;-1.93;66.68;98859.88;1720042;81;21290;-76
2021/01/13 12:10:50;;;;;;;16.12;8.00;;;;;;;-1.86;66.50;98858.52;1735223;81;21612;-73